Time;durP1;ratioP1;P1;durP2;ratioP2;P2;SDS_P1;SDS_P2;PMS_P1;PMS_P2;Temp;Humidity;BMP_temperature;BMP_pressure;BME280_temperature;BME280_humidity;BME280_pressure;Samples;Min_cycle;Max_cycle;Signal;HPM_P1;HPM_P2
2023/01/02 00:01:11;;;;;;;4.05;1.33;;;10.20;99.90;;;9.30;100.00;100982.22;3981482;29;20030;-83
2023/01/02 00:03:12;;;;;;;3.10;1.30;;;10.20;99.90;;;9.29;100.00;100983.19;3982453;29;20030;-83
2023/01/02 00:05:13;;;;;;;4.88;1.17;;;10.10;99.90;;;9.27;100.00;100988.63;3985760;29;20444;-83
2023/01/02 00:07:14;;;;;;;3.33;0.77;;;10.20;99.90;;;9.27;100.00;100985.16;3996302;29;20531;-83
2023/01/02 00:09:17;;;;;;;2.85;0.90;;;10.10;99.90;;;9.32;100.00;100993.44;3982408;29;20038;-83
2023/01/02 00:11:18;;;;;;;2.53;1.13;;;10.20;99.90;;;9.32;100.00;100993.44;3982132;29;20038;-84
2023/01/02 00:13:19;;;;;;;3.25;1.23;;;10.20;99.90;;;9.31;100.00;100989.16;3982450;29;20407;-83
2023/01/02 00:15:20;;;;;;;4.22;1.40;;;10.20;99.90;;;9.35;100.00;100994.00;3985213;29;20026;-83
2023/01/02 00:17:21;;;;;;;4.43;1.50;;;10.20;99.90;;;9.41;100.00;101003.13;4000298;29;20037;-83
2023/01/02 00:19:21;;;;;;;4.63;1.70;;;10.20;99.90;;;9.42;100.00;101002.16;3982200;29;20031;-83
2023/01/02 00:21:22;;;;;;;6.57;2.10;;;10.20;99.90;;;9.48;100.00;101009.50;3982499;29;20030;-83
2023/01/02 00:23:23;;;;;;;4.93;2.20;;;10.30;99.90;;;9.50;100.00;101006.72;3982282;29;20030;-84
2023/01/02 00:25:24;;;;;;;7.53;2.70;;;10.30;99.90;;;9.51;100.00;101006.56;3986267;29;20023;-83
2023/01/02 00:27:25;;;;;;;4.05;2.10;;;10.30;99.90;;;9.52;100.00;100999.50;3983960;29;20035;-83
2023/01/02 00:29:26;;;;;;;5.18;1.40;;;10.40;99.90;;;9.57;100.00;101000.72;3996205;29;20033;-82
2023/01/02 00:31:27;;;;;;;6.15;1.75;;;10.40;99.90;;;9.51;100.00;100988.13;3982214;29;20484;-83
2023/01/02 00:33:28;;;;;;;6.72;3.55;;;10.40;99.90;;;9.49;100.00;100991.91;3980971;29;20092;-83
2023/01/02 00:35:30;;;;;;;5.38;1.40;;;10.40;99.90;;;9.50;100.00;101004.91;3984846;29;20073;-83
2023/01/02 00:37:31;;;;;;;7.40;1.30;;;10.40;99.90;;;9.42;100.00;100996.91;3982097;29;20039;-83
2023/01/02 00:39:31;;;;;;;11.25;5.03;;;10.30;99.90;;;9.44;100.00;101002.84;3983691;29;20031;-83
2023/01/02 00:41:32;;;;;;;10.05;4.43;;;10.30;99.90;;;9.40;100.00;101012.84;3981706;29;20088;-84
2023/01/02 00:43:33;;;;;;;8.48;2.92;;;10.30;99.90;;;9.34;100.00;100999.41;3987782;29;20023;-83
2023/01/02 00:45:34;;;;;;;5.93;2.17;;;10.20;99.90;;;9.31;100.00;101005.81;3989301;29;20050;-83
2023/01/02 00:47:35;;;;;;;10.98;4.53;;;10.20;99.90;;;9.27;100.00;101004.41;3980736;29;20531;-83
2023/01/02 00:49:36;;;;;;;4.88;1.85;;;10.10;99.90;;;9.25;100.00;101016.06;3982075;29;20035;-83
2023/01/02 00:51:37;;;;;;;3.50;1.42;;;10.10;99.90;;;9.19;100.00;101012.19;3981761;29;20579;-83
2023/01/02 00:53:38;;;;;;;4.40;1.30;;;10.10;99.90;;;9.21;100.00;101017.28;3981940;29;20035;-82
2023/01/02 00:55:39;;;;;;;4.38;1.45;;;10.10;99.90;;;9.20;100.00;101018.28;3971461;29;20507;-83
2023/01/02 00:57:40;;;;;;;8.48;2.30;;;10.10;99.90;;;9.22;100.00;101021.59;3986773;29;20049;-82
2023/01/02 00:59:41;;;;;;;10.15;2.75;;;10.10;99.90;;;9.22;100.00;101025.06;3981620;29;20118;-83
2023/01/02 01:01:41;;;;;;;12.57;3.60;;;10.10;99.90;;;9.24;100.00;101019.66;3981752;29;20037;-83
2023/01/02 01:03:42;;;;;;;8.93;2.03;;;10.10;99.90;;;9.21;100.00;101020.75;3982739;29;20046;-83
2023/01/02 01:05:44;;;;;;;20.98;6.78;;;10.10;99.90;;;9.28;100.00;101034.19;3987780;29;20447;-83
2023/01/02 01:07:44;;;;;;;8.70;2.30;;;10.10;99.90;;;9.25;100.00;101034.47;3982738;29;20031;-84
2023/01/02 01:09:45;;;;;;;4.93;1.42;;;10.10;99.90;;;9.25;100.00;101047.63;3981654;29;20087;-83
2023/01/02 01:11:46;;;;;;;11.50;2.03;;;10.10;99.90;;;9.23;100.00;101044.28;3980254;29;20520;-83
2023/01/02 01:13:47;;;;;;;8.15;2.38;;;10.10;99.90;;;9.26;100.00;101046.66;3980405;29;20129;-83
2023/01/02 01:15:48;;;;;;;4.85;2.10;;;10.20;99.90;;;9.24;100.00;101054.69;3986604;29;20030;-83
2023/01/02 01:17:49;;;;;;;8.18;1.92;;;10.10;99.90;;;9.27;100.00;101056.22;3981680;29;20031;-83
2023/01/02 01:19:49;;;;;;;7.93;2.13;;;10.20;99.90;;;9.26;100.00;101057.19;3980263;29;20035;-83
2023/01/02 01:21:50;;;;;;;5.78;1.98;;;10.20;99.90;;;9.27;100.00;101050.94;3980182;29;20031;-83
2023/01/02 01:23:53;;;;;;;5.30;1.45;;;10.20;99.90;;;9.28;100.00;101052.63;3992507;29;20035;-83
2023/01/02 01:25:54;;;;;;;8.05;2.28;;;10.20;99.90;;;9.27;100.00;101054.41;3991644;29;20031;-83
2023/01/02 01:27:55;;;;;;;5.70;1.80;;;10.20;99.90;;;9.25;100.00;101047.63;3983547;29;20042;-84
2023/01/02 01:29:56;;;;;;;6.90;1.20;;;10.10;99.90;;;9.25;100.00;101050.28;3982387;29;20035;-83
2023/01/02 01:31:57;;;;;;;6.93;1.38;;;10.10;99.90;;;9.22;100.00;101056.66;3985500;29;20570;-84
2023/01/02 01:33:58;;;;;;;8.93;1.88;;;10.10;99.90;;;9.20;100.00;101055.94;3981177;29;20031;-84
2023/01/02 01:36:07;;;;;;;6.90;1.35;;;10.10;99.90;;;9.21;100.00;101054.97;3984550;29;20039;-83
2023/01/02 01:38:08;;;;;;;5.70;1.58;;;10.10;99.90;;;9.25;100.00;101055.53;3980325;29;20037;-82
2023/01/02 01:40:10;;;;;;;3.75;1.13;;;10.10;99.90;;;9.23;100.00;101052.19;3984781;29;20062;-83
2023/01/02 01:42:14;;;;;;;3.90;1.40;;;10.10;99.90;;;9.25;100.00;101045.00;3979632;29;20039;-83
2023/01/02 01:44:53;;;;;;;4.00;1.50;;;10.10;99.90;;;9.25;100.00;101045.00;3981294;29;20039;-83
2023/01/02 01:46:54;;;;;;;5.07;1.65;;;10.10;99.90;;;9.21;100.00;101039.19;3982151;29;20100;-83
2023/01/02 01:49:15;;;;;;;8.15;1.85;;;10.10;99.90;;;9.19;100.00;101035.88;3979799;29;20121;-83
2023/01/02 01:51:19;;;;;;;6.65;1.42;;;10.10;99.90;;;9.10;100.00;101027.97;3980226;29;20483;-83
2023/01/02 01:53:21;;;;;;;10.00;1.73;;;10.00;99.90;;;9.10;100.00;101034.09;3979964;29;20035;-84
2023/01/02 01:55:34;;;;;;;6.38;1.35;;;10.00;99.90;;;9.11;100.00;101038.34;3982419;29;20077;-84
2023/01/02 01:57:52;;;;;;;7.03;1.30;;;10.00;99.90;;;9.10;100.00;101035.88;3987684;29;20034;-83
2023/01/02 01:59:55;;;;;;;8.68;2.05;;;9.90;99.90;;;9.02;100.00;101031.28;3994629;29;20034;-83
2023/01/02 02:01:57;;;;;;;8.07;1.38;;;9.90;99.90;;;9.04;100.00;101033.78;3994883;29;20042;-83
2023/01/02 02:03:58;;;;;;;8.88;1.27;;;9.90;99.90;;;9.10;100.00;101049.03;3994981;29;20033;-84
2023/01/02 02:06:00;;;;;;;6.80;1.60;;;10.00;99.90;;;9.13;100.00;101056.66;4002039;29;20033;-84
2023/01/02 02:08:56;;;;;;;6.45;2.15;;;10.00;99.90;;;9.17;100.00;101063.31;3982128;29;20026;-83
2023/01/02 02:10:59;;;;;;;3.28;1.20;;;10.00;99.90;;;9.16;100.00;101059.00;3980658;29;20045;-83
2023/01/02 02:13:00;;;;;;;5.15;1.52;;;10.00;99.90;;;9.18;100.00;101070.22;3979503;29;20066;-84
2023/01/02 02:15:01;;;;;;;8.88;1.77;;;10.00;99.90;;;9.22;100.00;101071.59;3979625;29;20031;-83
2023/01/02 02:18:03;;;;;;;9.23;1.75;;;10.10;99.90;;;9.25;100.00;101087.13;3987904;29;20041;-83
2023/01/02 02:20:16;;;;;;;10.90;2.67;;;10.10;99.90;;;9.25;100.00;101087.97;3959428;29;20500;-83
2023/01/02 02:22:41;;;;;;;4.60;1.27;;;10.10;99.90;;;9.29;100.00;101094.59;3979739;29;20102;-83
2023/01/02 02:25:00;;;;;;;7.32;1.83;;;10.10;99.90;;;9.35;100.00;101107.19;3990456;29;20458;-83
2023/01/02 02:27:20;;;;;;;8.18;1.73;;;10.20;99.90;;;9.37;100.00;101114.97;3984206;29;20137;-83
2023/01/02 02:30:10;;;;;;;10.38;2.05;;;10.20;99.90;;;9.38;100.00;101119.25;3969199;29;20111;-83
2023/01/02 02:32:26;;;;;;;10.25;2.47;;;10.20;99.90;;;9.36;100.00;101126.47;3980372;29;20062;-82
2023/01/02 02:35:29;;;;;;;4.90;1.83;;;10.20;99.90;;;9.32;100.00;101130.34;3980784;29;20043;-82
2023/01/02 02:37:35;;;;;;;13.07;3.05;;;10.20;99.90;;;9.26;100.00;101129.09;3898160;30;20041;-83
2023/01/02 02:39:57;;;;;;;10.38;1.83;;;10.20;99.90;;;9.22;100.00;101121.63;3909454;30;20041;-83
2023/01/02 02:42:12;;;;;;;7.80;2.40;;;10.10;99.90;;;9.22;100.00;101135.63;3903981;29;20179;-83
2023/01/02 02:44:45;;;;;;;7.20;2.05;;;10.10;99.90;;;9.17;100.00;101123.84;3980583;29;20031;-82
2023/01/02 02:47:30;;;;;;;7.13;2.05;;;10.10;99.90;;;9.12;100.00;101128.66;3966525;29;20035;-83
2023/01/02 02:50:02;;;;;;;5.32;1.52;;;10.00;99.90;;;9.08;100.00;101122.84;3974967;29;20447;-83
2023/01/02 02:52:31;;;;;;;6.97;2.40;;;10.00;99.90;;;9.04;100.00;101136.41;3979143;29;20060;-83
2023/01/02 02:54:53;;;;;;;6.00;1.50;;;9.90;99.90;;;9.01;100.00;101142.78;3981129;29;20065;-83
2023/01/02 02:56:56;;;;;;;10.48;2.58;;;9.90;99.90;;;9.00;100.00;101150.81;3991140;29;20035;-83
2023/01/02 02:58:58;;;;;;;8.20;1.85;;;9.90;99.90;;;8.97;100.00;101143.19;3979393;29;20526;-83
2023/01/02 03:01:10;;;;;;;9.13;2.45;;;9.80;99.90;;;9.01;100.00;101155.09;3979476;29;20054;-82
2023/01/02 03:03:21;;;;;;;9.95;1.70;;;9.80;99.90;;;8.96;100.00;101144.16;3982047;29;20061;-82
2023/01/02 03:05:36;;;;;;;10.38;2.25;;;9.80;99.90;;;8.98;100.00;101158.00;3984836;29;20042;-83
2023/01/02 03:08:28;;;;;;;11.73;2.25;;;9.80;99.90;;;8.95;100.00;101166.19;4002168;29;20062;-82
2023/01/02 03:10:57;;;;;;;6.75;2.38;;;9.80;99.90;;;8.96;100.00;101165.22;3966590;30;20547;-82
2023/01/02 03:13:34;;;;;;;4.55;2.03;;;9.80;99.90;;;8.98;100.00;101173.81;3992083;29;20042;-83
2023/01/02 03:16:04;;;;;;;5.57;2.03;;;9.90;99.90;;;8.99;100.00;101171.03;3998217;29;20041;-83
2023/01/02 03:18:35;;;;;;;7.60;2.03;;;9.80;99.90;;;8.98;100.00;101163.28;3971650;29;20123;-83
2023/01/02 03:20:44;;;;;;;8.13;1.80;;;9.80;99.90;;;8.94;100.00;101167.97;3983136;29;20071;-83
2023/01/02 03:22:54;;;;;;;7.95;2.38;;;9.80;99.90;;;8.91;100.00;101173.50;3995707;29;20033;-81
2023/01/02 03:24:56;;;;;;;10.57;1.80;;;9.80;99.90;;;8.89;100.00;101168.38;3984454;29;20046;-83
2023/01/02 03:27:14;;;;;;;5.15;1.90;;;9.80;99.90;;;8.88;100.00;101171.13;3970191;29;20026;-83
2023/01/02 03:29:20;;;;;;;8.80;1.80;;;9.70;99.90;;;8.85;100.00;101168.78;3981772;29;20034;-82
2023/01/02 03:31:24;;;;;;;11.75;2.28;;;9.70;99.90;;;8.85;100.00;101177.50;3981841;29;20504;-83
2023/01/02 03:33:30;;;;;;;6.60;2.25;;;9.70;99.90;;;8.85;100.00;101174.03;3981805;29;20405;-83
2023/01/02 03:35:41;;;;;;;12.93;2.40;;;9.70;99.90;;;8.83;100.00;101168.94;3983502;29;20035;-82
2023/01/02 03:37:50;;;;;;;8.68;2.03;;;9.70;99.90;;;8.83;100.00;101181.25;3981859;29;20091;-83
2023/01/02 03:39:56;;;;;;;13.38;2.10;;;9.70;99.90;;;8.79;100.00;101178.03;3985475;29;20031;-83
2023/01/02 03:42:28;;;;;;;8.57;1.58;;;9.70;99.90;;;8.82;100.00;101177.78;3981405;29;20034;-83
2023/01/02 03:44:44;;;;;;;9.48;1.58;;;9.70;99.90;;;8.78;100.00;101181.63;3989470;29;20518;-83
2023/01/02 03:47:14;;;;;;;14.70;2.42;;;9.60;99.90;;;8.78;100.00;101189.53;3996110;29;20083;-82
2023/01/02 03:49:47;;;;;;;9.10;3.50;;;9.60;99.90;;;8.77;100.00;101198.41;3972256;29;20081;-83
2023/01/02 03:51:49;;;;;;;7.10;1.95;;;9.70;99.90;;;8.77;100.00;101202.81;3965295;29;20054;-82
2023/01/02 03:53:51;;;;;;;7.28;1.80;;;9.60;99.90;;;8.76;100.00;101201.97;3981780;29;20467;-82
2023/01/02 03:56:23;;;;;;;6.63;1.65;;;9.70;99.90;;;8.80;100.00;101210.44;3985388;29;20094;-82
2023/01/02 03:58:32;;;;;;;10.68;2.58;;;9.70;99.90;;;8.76;100.00;101201.97;3996875;29;20122;-83
2023/01/02 04:00:49;;;;;;;10.10;1.88;;;9.60;99.90;;;8.75;100.00;101207.38;3996330;29;20089;-83
2023/01/02 04:03:08;;;;;;;4.68;1.70;;;9.60;99.90;;;8.73;100.00;101211.94;3995582;29;20079;-81
2023/01/02 04:05:21;;;;;;;11.73;3.53;;;9.60;99.90;;;8.72;100.00;101221.59;3996227;29;20066;-83
2023/01/02 04:07:54;;;;;;;17.90;2.53;;;9.60;99.90;;;8.75;100.00;101225.81;3976194;29;20035;-82
2023/01/02 04:09:56;;;;;;;13.63;2.20;;;9.60;99.90;;;8.70;100.00;101223.56;3982648;29;20039;-83
2023/01/02 04:12:12;;;;;;;5.82;1.80;;;9.60;99.90;;;8.72;100.00;101224.25;3981183;29;20113;-83
2023/01/02 04:14:40;;;;;;;6.97;1.70;;;9.60;99.90;;;8.72;100.00;101231.31;3980275;29;20194;-82
2023/01/02 04:16:43;;;;;;;9.07;1.85;;;9.60;99.90;;;8.69;100.00;101231.59;3987037;29;20542;-83
2023/01/02 04:18:53;;;;;;;6.63;1.70;;;9.60;99.90;;;8.67;100.00;101236.97;3981320;29;20045;-83
2023/01/02 04:21:01;;;;;;;6.72;1.77;;;9.50;99.90;;;8.69;100.00;101252.63;3981302;29;20455;-82
2023/01/02 04:23:15;;;;;;;8.43;1.92;;;9.50;99.90;;;8.66;100.00;101258.97;3981138;29;20035;-81
2023/01/02 04:25:17;;;;;;;;;;;9.50;99.90;;;8.64;100.00;101266.16;3982310;29;20027;-83
2023/01/02 04:27:26;;;;;;;9.35;1.70;;;9.50;99.90;;;8.67;100.00;101276.41;3984405;29;19913;-83
2023/01/02 04:29:27;;;;;;;10.55;2.65;;;9.50;99.90;;;8.66;100.00;101274.75;3995845;29;20038;-82
2023/01/02 04:31:57;;;;;;;13.48;1.95;;;9.60;99.90;;;8.67;100.00;101281.69;3995938;29;20071;-83
2023/01/02 04:34:00;;;;;;;7.32;1.63;;;9.60;99.90;;;8.62;100.00;101283.88;3985132;29;20522;-82
2023/01/02 04:36:12;;;;;;;9.85;1.70;;;9.50;99.90;;;8.66;100.00;101281.81;3995969;29;20034;-83
2023/01/02 04:38:13;;;;;;;7.97;1.35;;;9.50;99.90;;;8.65;100.00;101285.41;3987326;29;20129;-84
2023/01/02 04:40:28;;;;;;;14.50;3.47;;;9.50;99.90;;;8.66;100.00;101273.94;3998686;29;20522;-83
2023/01/02 04:42:29;;;;;;;10.50;1.63;;;9.50;99.90;;;8.67;100.00;101268.53;3995661;29;20042;-82
2023/01/02 04:44:30;;;;;;;10.02;2.30;;;9.50;99.90;;;8.67;100.00;101260.63;4000971;29;20058;-82
2023/01/02 04:46:31;;;;;;;8.48;1.40;;;9.50;99.90;;;8.67;100.00;101262.44;3984613;29;20460;-83
2023/01/02 04:48:32;;;;;;;14.57;2.33;;;9.50;99.90;;;8.66;100.00;101258.16;3980743;29;20056;-83
2023/01/02 04:50:33;;;;;;;7.10;1.58;;;9.50;99.90;;;8.66;100.00;101256.31;3982122;29;20035;-83
2023/01/02 04:52:34;;;;;;;4.50;1.25;;;9.50;99.90;;;8.71;100.00;101271.72;3980751;29;20147;-82
2023/01/02 04:54:34;;;;;;;5.72;1.50;;;9.50;99.90;;;8.72;100.00;101286.56;3980737;29;20062;-83
2023/01/02 04:56:35;;;;;;;4.95;1.55;;;9.60;99.90;;;8.71;100.00;101275.19;3980683;29;20065;-82
2023/01/02 04:58:36;;;;;;;9.75;1.73;;;9.60;99.90;;;8.72;100.00;101274.22;3980693;29;20047;-83
2023/01/02 05:00:37;;;;;;;9.07;1.73;;;9.60;99.90;;;8.75;100.00;101287.09;3980645;29;20027;-83
2023/01/02 05:02:39;;;;;;;8.43;1.48;;;9.60;99.90;;;8.77;100.00;101298.34;3981649;29;20070;-83
2023/01/02 05:04:39;;;;;;;6.45;2.20;;;9.60;99.90;;;8.81;100.00;101286.59;3981563;29;20033;-84
2023/01/02 05:06:40;;;;;;;7.45;1.70;;;9.60;99.90;;;8.76;100.00;101270.38;3991796;29;20031;-84
2023/01/02 05:08:42;;;;;;;8.52;2.17;;;9.70;99.90;;;8.73;100.00;101270.63;3981650;29;20031;-84
2023/01/02 05:10:43;;;;;;;8.73;1.70;;;9.60;99.90;;;8.71;100.00;101267.31;3982067;29;20038;-84
2023/01/02 05:12:44;;;;;;;10.38;1.88;;;9.60;99.90;;;8.69;100.00;101263.97;3980311;29;20042;-82
2023/01/02 05:14:45;;;;;;;8.32;1.80;;;9.60;99.90;;;8.66;100.00;101266.84;3980449;29;20560;-83
2023/01/02 05:16:46;;;;;;;9.35;1.77;;;9.50;99.90;;;8.62;100.00;101270.72;3989244;29;20031;-83
2023/01/02 05:18:46;;;;;;;8.25;2.05;;;9.50;99.90;;;8.59;100.00;101289.38;3981469;29;20058;-83
2023/01/02 05:20:48;;;;;;;14.52;2.45;;;9.50;99.90;;;8.58;100.00;101279.00;3981348;29;20023;-83
2023/01/02 05:25:08;;;;;;;8.48;1.40;;;9.40;99.90;;;8.53;100.00;101289.91;3982597;29;20070;-83
2023/01/02 05:27:09;;;;;;;13.40;1.70;;;9.40;99.90;;;8.50;100.00;101266.50;3995221;29;20154;-82
2023/01/02 05:29:10;;;;;;;7.60;2.13;;;9.40;99.90;;;8.48;100.00;101257.91;3983473;29;20026;-82
2023/01/02 05:31:12;;;;;;;5.20;1.40;;;9.30;99.90;;;8.44;100.00;101264.38;3971198;29;20055;-83
2023/01/02 05:33:12;;;;;;;10.50;1.40;;;9.30;99.90;;;8.45;100.00;101281.84;3980129;29;20062;-82
2023/01/02 05:35:14;;;;;;;8.88;1.60;;;9.30;99.90;;;8.46;100.00;101294.00;3984220;29;20030;-83
2023/01/02 05:37:14;;;;;;;7.65;2.38;;;9.30;99.90;;;8.46;100.00;101299.25;3996331;29;20034;-83
2023/01/02 05:39:15;;;;;;;11.95;1.42;;;9.30;99.90;;;8.49;100.00;101304.25;3984282;29;20416;-82
2023/01/02 05:41:17;;;;;;;9.13;2.25;;;9.30;99.90;;;8.47;100.00;101300.94;3981077;29;20027;-82
2023/01/02 05:43:18;;;;;;;6.38;1.77;;;9.30;99.90;;;8.44;100.00;101314.34;3981091;29;20042;-83
2023/01/02 05:45:19;;;;;;;6.35;2.08;;;9.30;99.90;;;8.47;100.00;101311.47;3993129;29;20022;-83
2023/01/02 05:47:19;;;;;;;13.27;1.30;;;9.30;99.90;;;8.48;100.00;101331.53;3981149;29;20069;-83
2023/01/02 05:49:20;;;;;;;9.90;1.88;;;9.30;99.90;;;8.43;100.00;101315.28;3981079;29;20381;-83
2023/01/02 05:51:21;;;;;;;6.03;1.10;;;9.30;99.90;;;8.47;100.00;101319.34;3979818;29;20042;-83
2023/01/02 05:53:22;;;;;;;4.65;1.48;;;9.30;99.90;;;8.44;100.00;101311.72;3988916;29;20130;-82
2023/01/02 05:55:23;;;;;;;9.48;1.58;;;9.30;99.90;;;8.40;100.00;101325.22;3984600;29;20038;-83
2023/01/02 05:57:24;;;;;;;8.98;2.17;;;9.30;99.90;;;8.40;100.00;101341.00;3989089;29;20532;-83
2023/01/02 05:59:25;;;;;;;8.93;1.48;;;9.20;99.90;;;8.38;100.00;101343.78;3980910;29;20038;-83
2023/01/02 06:01:28;;;;;;;11.50;1.88;;;9.20;99.90;;;8.38;100.00;101348.19;3981039;29;20484;-83
2023/01/02 06:03:29;;;;;;;7.90;1.85;;;9.20;99.90;;;8.37;100.00;101357.03;3989779;29;20023;-82
2023/01/02 06:05:30;;;;;;;11.40;2.15;;;9.20;99.90;;;8.33;100.00;101359.91;3984469;29;20057;-82
2023/01/02 06:07:31;;;;;;;8.90;1.35;;;9.20;99.90;;;8.35;100.00;101372.94;3999764;29;20083;-83
2023/01/02 06:09:32;;;;;;;7.88;1.73;;;9.20;99.90;;;8.35;100.00;101370.31;3980690;29;20070;-83
2023/01/02 06:11:33;;;;;;;4.95;1.67;;;9.20;99.90;;;8.35;100.00;101375.56;3980666;29;20407;-82
2023/01/02 06:13:36;;;;;;;7.82;1.60;;;9.20;99.90;;;8.32;100.00;101373.19;3985554;29;20106;-83
2023/01/02 06:15:37;;;;;;;7.70;1.40;;;9.20;99.90;;;8.28;100.00;101363.88;3985095;29;20061;-83
2023/01/02 06:17:38;;;;;;;7.07;1.58;;;9.20;99.90;;;8.33;100.00;101382.75;3982820;29;20034;-81
2023/01/02 06:19:39;;;;;;;6.00;1.25;;;9.20;99.90;;;8.33;100.00;101398.53;3980825;29;20027;-82
2023/01/02 06:21:40;;;;;;;7.93;1.65;;;9.20;99.90;;;8.36;100.00;101410.56;3979553;29;20035;-82
2023/01/02 06:23:41;;;;;;;6.40;1.40;;;9.20;99.90;;;8.38;100.00;101416.53;3983480;29;20046;-82
2023/01/02 06:25:42;;;;;;;7.07;2.10;;;9.20;99.90;;;8.39;100.00;101403.28;3985947;29;20055;-82
2023/01/02 06:27:43;;;;;;;5.03;1.60;;;9.30;99.90;;;8.45;100.00;101402.78;3979618;29;20027;-82
2023/01/02 06:29:44;;;;;;;11.88;2.50;;;9.30;99.90;;;8.48;100.00;101409.56;3980724;29;20395;-82
2023/01/02 06:31:45;;;;;;;6.88;1.75;;;9.30;99.90;;;8.47;100.00;101421.88;3980641;29;20059;-82
2023/01/02 06:33:46;;;;;;;10.35;2.47;;;9.30;99.90;;;8.45;100.00;101413.28;3981255;29;20087;-83
2023/01/02 06:35:46;;;;;;;8.10;1.90;;;9.30;99.90;;;8.41;100.00;101413.66;3983256;29;20503;-82
2023/01/02 06:37:47;;;;;;;10.63;2.40;;;9.30;99.90;;;8.35;100.00;101422.88;3983971;29;20091;-83
2023/01/02 06:39:48;;;;;;;5.50;1.27;;;9.20;99.90;;;8.33;100.00;101430.06;3988434;29;20027;-83
2023/01/02 06:41:50;;;;;;;10.82;1.48;;;9.20;99.90;;;8.30;100.00;101425.88;3985293;29;20034;-83
2023/01/02 06:43:51;;;;;;;10.73;1.63;;;9.20;99.90;;;8.22;100.00;101430.88;3995136;29;20559;-83
2023/01/02 06:45:55;;;;;;;5.55;1.05;;;9.10;99.90;;;8.16;100.00;101428.75;3985584;29;20030;-83
2023/01/02 06:47:57;;;;;;;7.53;1.17;;;9.10;99.90;;;8.06;100.00;101421.75;3984176;29;20035;-82
2023/01/02 06:49:58;;;;;;;9.60;1.27;;;9.00;99.90;;;7.98;100.00;101426.75;3985431;29;20041;-84
2023/01/02 06:51:59;;;;;;;7.57;1.30;;;8.90;99.90;;;7.92;100.00;101435.97;3984380;29;20023;-82
2023/01/02 06:53:59;;;;;;;6.55;1.10;;;8.90;99.90;;;7.86;100.00;101446.97;3992717;29;20031;-83
2023/01/02 06:56:00;;;;;;;6.60;1.10;;;8.80;99.90;;;7.86;100.00;101451.38;3991851;29;20038;-82
2023/01/02 06:58:01;;;;;;;4.65;1.20;;;8.80;99.90;;;7.81;100.00;101459.63;3988520;29;20103;-82
2023/01/02 07:00:03;;;;;;;7.28;1.00;;;8.70;99.90;;;7.86;100.00;101467.13;3984291;29;20031;-83
2023/01/02 07:02:04;;;;;;;4.95;1.30;;;8.70;99.90;;;7.85;100.00;101473.38;3985353;29;20063;-83
2023/01/02 07:04:05;;;;;;;6.85;1.50;;;8.80;99.90;;;7.86;100.00;101478.47;3991553;29;20084;-83
2023/01/02 07:06:13;;;;;;;8.00;1.13;;;8.70;99.90;;;7.85;100.00;101482.09;3993853;29;20026;-83
2023/01/02 07:08:14;;;;;;;5.63;1.10;;;8.80;99.90;;;7.84;100.00;101482.19;3986817;29;20027;-83
2023/01/02 07:10:15;;;;;;;5.95;1.10;;;8.80;99.90;;;7.91;100.00;101491.28;3999158;29;20391;-83
2023/01/02 07:12:16;;;;;;;9.35;1.20;;;8.80;99.90;;;7.90;100.00;101494.84;3986288;29;20070;-83
2023/01/02 07:14:17;;;;;;;5.20;1.02;;;8.80;99.90;;;7.89;100.00;101490.53;3988502;29;20038;-82
2023/01/02 07:16:20;;;;;;;6.53;1.08;;;8.80;99.90;;;7.87;100.00;101500.34;3985322;29;20031;-83
2023/01/02 07:18:21;;;;;;;7.43;2.10;;;8.80;99.90;;;7.92;100.00;101511.31;3984322;29;20206;-83
2023/01/02 07:20:22;;;;;;;9.18;3.50;;;8.80;99.90;;;7.92;100.00;101508.69;3985407;29;20042;-83
2023/01/02 07:22:24;;;;;;;12.95;5.97;;;8.80;99.90;;;7.91;100.00;101512.28;3987787;29;20053;-83
2023/01/02 07:24:24;;;;;;;13.13;5.50;;;8.80;99.90;;;7.88;100.00;101513.38;3985357;29;20484;-83
2023/01/02 07:26:25;;;;;;;9.00;3.75;;;8.80;99.90;;;7.90;100.00;101516.69;3989502;29;20034;-83
2023/01/02 07:28:28;;;;;;;10.52;3.20;;;8.80;99.90;;;7.89;100.00;101517.66;3985254;29;20039;-83
2023/01/02 07:30:29;;;;;;;10.13;2.97;;;8.80;99.90;;;7.91;100.00;101534.13;3998730;29;20632;-83
2023/01/02 07:32:29;;;;;;;8.70;2.80;;;8.70;99.90;;;7.91;100.00;101533.31;3987586;29;20062;-82
2023/01/02 07:34:30;;;;;;;8.70;2.25;;;8.70;99.90;;;7.88;100.00;101537.00;3994544;29;20409;-83
2023/01/02 07:36:31;;;;;;;8.38;1.90;;;8.70;99.90;;;7.82;100.00;101540.09;3987412;29;20496;-83
2023/01/02 07:38:33;;;;;;;9.15;2.22;;;8.70;99.90;;;7.77;100.00;101537.81;3988330;29;20038;-83
2023/01/02 07:40:34;;;;;;;7.00;2.03;;;8.60;99.90;;;7.68;100.00;101538.53;3984870;29;20039;-83
2023/01/02 07:42:35;;;;;;;6.57;1.50;;;8.60;99.90;;;7.65;100.00;101549.25;3988103;29;20041;-83
2023/01/02 07:44:35;;;;;;;6.95;1.50;;;8.50;99.90;;;7.54;100.00;101549.25;3991411;29;20396;-83
2023/01/02 07:46:36;;;;;;;10.57;1.63;;;8.50;99.90;;;7.54;100.00;101558.91;3995495;29;20038;-83
2023/01/02 07:48:38;;;;;;;8.02;1.85;;;8.40;99.90;;;7.48;100.00;101557.59;3983567;29;20416;-85
2023/01/02 07:50:39;;;;;;;5.72;1.38;;;8.40;99.90;;;7.37;100.00;101552.34;3981656;29;20031;-85
2023/01/02 07:52:42;;;;;;;8.27;2.47;;;8.30;99.90;;;7.36;100.00;101562.94;3985005;29;20122;-85
2023/01/02 07:54:43;;;;;;;7.60;1.98;;;8.30;99.90;;;7.31;100.00;101567.69;3999701;29;20116;-84
2023/01/02 07:56:44;;;;;;;4.05;2.30;;;8.20;99.90;;;7.24;100.00;101565.53;3988816;29;20499;-85
2023/01/02 07:58:44;;;;;;;10.60;3.10;;;8.10;99.90;;;7.19;100.00;101556.34;3982690;29;20066;-84
2023/01/02 08:00:45;;;;;;;11.63;2.70;;;8.10;99.90;;;7.15;100.00;101566.22;3981483;29;20046;-84
2023/01/02 08:02:48;;;;;;;9.90;3.05;;;8.10;99.90;;;7.12;100.00;101571.69;3984462;29;20763;-85
2023/01/02 08:04:49;;;;;;;8.55;3.53;;;8.10;99.90;;;7.12;100.00;101570.84;3981515;29;20134;-84
2023/01/02 08:06:50;;;;;;;6.22;2.72;;;8.10;99.90;;;7.13;100.00;101577.78;3987819;29;20043;-85
2023/01/02 08:08:51;;;;;;;10.57;3.10;;;8.00;99.90;;;7.17;100.00;101584.44;3982575;29;20042;-85
2023/01/02 08:10:52;;;;;;;5.90;2.33;;;8.00;99.90;;;7.15;100.00;101587.19;3982246;29;20496;-83
2023/01/02 08:12:53;;;;;;;12.38;3.08;;;8.00;99.90;;;7.16;100.00;101598.53;3983621;29;20034;-84
2023/01/02 08:14:54;;;;;;;6.70;3.38;;;8.00;99.90;;;7.09;100.00;101586.81;3981461;29;20480;-83
2023/01/02 08:16:55;;;;;;;7.57;2.15;;;8.00;99.90;;;7.16;100.00;101596.75;3984426;29;20043;-82
2023/01/02 08:18:55;;;;;;;9.70;2.40;;;8.00;99.90;;;7.15;100.00;101602.09;3982223;29;20031;-82
2023/01/02 08:20:56;;;;;;;6.72;2.33;;;8.00;99.90;;;7.16;100.00;101603.78;3981265;29;20070;-82
2023/01/02 08:22:57;;;;;;;10.10;2.50;;;8.00;99.90;;;7.15;100.00;101609.97;3982731;29;20027;-82
2023/01/02 08:24:58;;;;;;;8.52;2.22;;;8.10;99.90;;;7.16;100.00;101619.53;3982122;29;20035;-81
2023/01/02 08:26:59;;;;;;;6.53;1.98;;;8.00;99.90;;;7.14;100.00;101621.41;3983231;29;20034;-81
2023/01/02 08:29:00;;;;;;;7.20;2.92;;;8.10;99.90;;;7.18;100.00;101628.13;3980948;29;20035;-81
2023/01/02 08:31:06;;;;;;;4.90;2.10;;;8.10;99.90;;;7.23;100.00;101628.59;3982403;29;20051;-81
2023/01/02 08:33:06;;;;;;;10.20;3.03;;;8.10;99.90;;;7.26;100.00;101636.25;3988373;29;20079;-81
2023/01/02 08:35:08;;;;;;;10.57;2.53;;;8.10;99.90;;;7.31;100.00;101634.16;3986528;29;20076;-82
2023/01/02 08:37:08;;;;;;;12.18;2.03;;;8.20;99.90;;;7.37;100.00;101640.72;3991830;29;20038;-82
2023/01/02 08:39:09;;;;;;;7.72;2.72;;;8.20;99.90;;;7.38;100.00;101648.47;3985300;29;20567;-82
2023/01/02 08:41:10;;;;;;;5.00;2.10;;;8.20;99.90;;;7.36;100.00;101647.75;3981979;29;20039;-82
2023/01/02 08:43:11;;;;;;;5.60;1.80;;;8.30;99.90;;;7.36;100.00;101655.63;3987233;29;20058;-81
2023/01/02 08:45:12;;;;;;;6.78;2.17;;;8.30;99.90;;;7.40;100.00;101656.25;3997565;29;20499;-82
2023/01/02 08:47:13;;;;;;;14.07;6.57;;;8.30;99.90;;;7.44;100.00;101668.19;3989942;29;20072;-81
2023/01/02 08:49:14;;;;;;;12.68;6.22;;;8.30;99.90;;;7.43;100.00;101674.41;3982088;29;20099;-82